sensor_id;sensor_type;location;lat;lon;timestamp;temperature;humidity
10788;DHT22;5446;50.826;4.380;2023-11-21T00:01:04;9.50;99.90
10788;DHT22;5446;50.826;4.380;2023-11-21T00:03:31;9.60;99.90
10788;DHT22;5446;50.826;4.380;2023-11-21T00:05:57;9.60;99.90
10788;DHT22;5446;50.826;4.380;2023-11-21T00:08:22;9.60;99.90
10788;DHT22;5446;50.826;4.380;2023-11-21T00:10:48;9.60;99.90
10788;DHT22;5446;50.826;4.380;2023-11-21T00:13:14;9.50;99.90
10788;DHT22;5446;50.826;4.380;2023-11-21T00:15:40;9.50;99.90
10788;DHT22;5446;50.826;4.380;2023-11-21T00:18:06;9.50;99.90
10788;DHT22;5446;50.826;4.380;2023-11-21T00:20:32;9.50;99.90
10788;DHT22;5446;50.826;4.380;2023-11-21T00:22:58;9.50;99.90
10788;DHT22;5446;50.826;4.380;2023-11-21T00:25:25;9.40;99.90
10788;DHT22;5446;50.826;4.380;2023-11-21T00:27:51;9.40;99.90
10788;DHT22;5446;50.826;4.380;2023-11-21T00:30:16;9.30;99.90
10788;DHT22;5446;50.826;4.380;2023-11-21T00:32:42;9.30;99.90
10788;DHT22;5446;50.826;4.380;2023-11-21T00:35:08;9.30;99.90
10788;DHT22;5446;50.826;4.380;2023-11-21T00:37:34;9.30;99.90
10788;DHT22;5446;50.826;4.380;2023-11-21T00:40:00;9.20;99.90
10788;DHT22;5446;50.826;4.380;2023-11-21T00:42:29;9.30;99.90
10788;DHT22;5446;50.826;4.380;2023-11-21T00:44:55;9.30;99.90
10788;DHT22;5446;50.826;4.380;2023-11-21T00:47:20;9.30;99.90
10788;DHT22;5446;50.826;4.380;2023-11-21T00:49:46;9.20;99.90
10788;DHT22;5446;50.826;4.380;2023-11-21T00:52:12;9.20;99.90
10788;DHT22;5446;50.826;4.380;2023-11-21T00:54:37;9.20;99.90
10788;DHT22;5446;50.826;4.380;2023-11-21T00:57:03;9.10;99.90
10788;DHT22;5446;50.826;4.380;2023-11-21T00:59:29;9.10;99.90
10788;DHT22;5446;50.826;4.380;2023-11-21T01:01:55;9.10;99.90
10788;DHT22;5446;50.826;4.380;2023-11-21T01:04:21;9.10;99.90
10788;DHT22;5446;50.826;4.380;2023-11-21T01:06:47;9.10;99.90
10788;DHT22;5446;50.826;4.380;2023-11-21T01:09:13;9.00;99.90
10788;DHT22;5446;50.826;4.380;2023-11-21T01:11:38;9.00;99.90
10788;DHT22;5446;50.826;4.380;2023-11-21T01:14:05;9.00;99.90
10788;DHT22;5446;50.826;4.380;2023-11-21T01:16:31;9.10;99.90
10788;DHT22;5446;50.826;4.380;2023-11-21T01:19:00;9.10;99.90
10788;DHT22;5446;50.826;4.380;2023-11-21T01:21:26;9.10;99.90
10788;DHT22;5446;50.826;4.380;2023-11-21T01:23:53;9.10;99.90
10788;DHT22;5446;50.826;4.380;2023-11-21T01:26:20;9.20;99.90
10788;DHT22;5446;50.826;4.380;2023-11-21T01:28:46;9.20;99.90
10788;DHT22;5446;50.826;4.380;2023-11-21T01:31:14;9.20;99.90
10788;DHT22;5446;50.826;4.380;2023-11-21T01:33:40;9.20;99.90
10788;DHT22;5446;50.826;4.380;2023-11-21T01:36:06;9.20;99.90
10788;DHT22;5446;50.826;4.380;2023-11-21T01:38:32;9.20;99.90
10788;DHT22;5446;50.826;4.380;2023-11-21T01:40:58;9.20;99.90
10788;DHT22;5446;50.826;4.380;2023-11-21T01:43:26;9.30;99.90
10788;DHT22;5446;50.826;4.380;2023-11-21T01:45:55;9.30;99.90
10788;DHT22;5446;50.826;4.380;2023-11-21T01:48:24;9.30;99.90
10788;DHT22;5446;50.826;4.380;2023-11-21T01:50:50;9.30;99.90
10788;DHT22;5446;50.826;4.380;2023-11-21T01:53:16;9.30;99.90
10788;DHT22;5446;50.826;4.380;2023-11-21T01:55:45;9.30;99.90
10788;DHT22;5446;50.826;4.380;2023-11-21T01:58:11;9.30;99.90
10788;DHT22;5446;50.826;4.380;2023-11-21T02:00:42;9.30;99.90
10788;DHT22;5446;50.826;4.380;2023-11-21T02:03:09;9.40;99.90
10788;DHT22;5446;50.826;4.380;2023-11-21T02:05:36;9.40;99.90
10788;DHT22;5446;50.826;4.380;2023-11-21T02:08:02;9.40;99.90
10788;DHT22;5446;50.826;4.380;2023-11-21T02:10:28;9.40;99.90
10788;DHT22;5446;50.826;4.380;2023-11-21T02:12:56;9.40;99.90
10788;DHT22;5446;50.826;4.380;2023-11-21T02:15:24;9.40;99.90
10788;DHT22;5446;50.826;4.380;2023-11-21T02:17:52;9.40;99.90
10788;DHT22;5446;50.826;4.380;2023-11-21T02:20:20;9.40;99.90
10788;DHT22;5446;50.826;4.380;2023-11-21T02:25:15;9.40;99.90
10788;DHT22;5446;50.826;4.380;2023-11-21T02:27:41;9.40;99.90
10788;DHT22;5446;50.826;4.380;2023-11-21T02:30:09;9.40;99.90
10788;DHT22;5446;50.826;4.380;2023-11-21T02:32:38;9.40;99.90
10788;DHT22;5446;50.826;4.380;2023-11-21T02:35:05;9.50;99.90
10788;DHT22;5446;50.826;4.380;2023-11-21T02:37:33;9.40;99.90
10788;DHT22;5446;50.826;4.380;2023-11-21T02:39:59;9.40;99.90
10788;DHT22;5446;50.826;4.380;2023-11-21T02:42:25;9.40;99.90
10788;DHT22;5446;50.826;4.380;2023-11-21T02:44:51;9.40;99.90
10788;DHT22;5446;50.826;4.380;2023-11-21T02:47:16;9.40;99.90
10788;DHT22;5446;50.826;4.380;2023-11-21T02:49:42;9.50;99.90
10788;DHT22;5446;50.826;4.380;2023-11-21T02:52:08;9.50;99.90
10788;DHT22;5446;50.826;4.380;2023-11-21T02:54:34;9.40;99.90
10788;DHT22;5446;50.826;4.380;2023-11-21T02:57:02;9.50;99.90
10788;DHT22;5446;50.826;4.380;2023-11-21T02:59:28;9.40;99.90
10788;DHT22;5446;50.826;4.380;2023-11-21T03:01:53;9.40;99.90
10788;DHT22;5446;50.826;4.380;2023-11-21T03:04:19;9.50;99.90
10788;DHT22;5446;50.826;4.380;2023-11-21T03:06:46;9.40;99.90
10788;DHT22;5446;50.826;4.380;2023-11-21T03:09:12;9.40;99.90
10788;DHT22;5446;50.826;4.380;2023-11-21T03:11:38;9.50;99.90
10788;DHT22;5446;50.826;4.380;2023-11-21T03:14:04;9.60;99.90
10788;DHT22;5446;50.826;4.380;2023-11-21T03:16:31;9.60;99.90
10788;DHT22;5446;50.826;4.380;2023-11-21T03:18:57;9.70;99.90
10788;DHT22;5446;50.826;4.380;2023-11-21T03:21:24;9.70;99.90
10788;DHT22;5446;50.826;4.380;2023-11-21T03:23:50;9.60;99.90
10788;DHT22;5446;50.826;4.380;2023-11-21T03:26:16;9.60;99.90
10788;DHT22;5446;50.826;4.380;2023-11-21T03:28:42;9.50;99.90
10788;DHT22;5446;50.826;4.380;2023-11-21T03:31:07;9.50;99.90
10788;DHT22;5446;50.826;4.380;2023-11-21T03:33:35;9.50;99.90
10788;DHT22;5446;50.826;4.380;2023-11-21T03:36:01;9.60;99.90
10788;DHT22;5446;50.826;4.380;2023-11-21T03:38:27;9.70;99.90
10788;DHT22;5446;50.826;4.380;2023-11-21T03:40:53;9.70;99.90
10788;DHT22;5446;50.826;4.380;2023-11-21T03:43:19;9.50;99.90
10788;DHT22;5446;50.826;4.380;2023-11-21T03:45:44;9.50;99.90
10788;DHT22;5446;50.826;4.380;2023-11-21T03:48:12;9.50;99.90
10788;DHT22;5446;50.826;4.380;2023-11-21T03:50:38;9.50;99.90
10788;DHT22;5446;50.826;4.380;2023-11-21T03:53:04;9.50;99.90
10788;DHT22;5446;50.826;4.380;2023-11-21T03:55:30;9.50;99.90
10788;DHT22;5446;50.826;4.380;2023-11-21T03:57:57;9.40;99.90
10788;DHT22;5446;50.826;4.380;2023-11-21T04:00:24;9.40;99.90
10788;DHT22;5446;50.826;4.380;2023-11-21T04:02:50;9.40;99.90
10788;DHT22;5446;50.826;4.380;2023-11-21T04:05:17;9.40;99.90
10788;DHT22;5446;50.826;4.380;2023-11-21T04:07:42;9.40;99.90
10788;DHT22;5446;50.826;4.380;2023-11-21T04:10:09;9.40;99.90
10788;DHT22;5446;50.826;4.380;2023-11-21T04:12:38;9.40;99.90
10788;DHT22;5446;50.826;4.380;2023-11-21T04:15:04;9.50;99.90
10788;DHT22;5446;50.826;4.380;2023-11-21T04:17:30;9.50;99.90
10788;DHT22;5446;50.826;4.380;2023-11-21T04:19:56;9.50;99.90
10788;DHT22;5446;50.826;4.380;2023-11-21T04:22:22;9.50;99.90
10788;DHT22;5446;50.826;4.380;2023-11-21T04:24:47;9.40;99.90
10788;DHT22;5446;50.826;4.380;2023-11-21T04:27:14;9.50;99.90
10788;DHT22;5446;50.826;4.380;2023-11-21T04:29:40;9.50;99.90
10788;DHT22;5446;50.826;4.380;2023-11-21T04:32:06;9.40;99.90
10788;DHT22;5446;50.826;4.380;2023-11-21T04:34:33;9.30;99.90
10788;DHT22;5446;50.826;4.380;2023-11-21T04:37:00;9.50;99.90
10788;DHT22;5446;50.826;4.380;2023-11-21T04:39:26;9.50;99.90
10788;DHT22;5446;50.826;4.380;2023-11-21T04:41:51;9.40;99.90
10788;DHT22;5446;50.826;4.380;2023-11-21T04:44:17;9.40;99.90
10788;DHT22;5446;50.826;4.380;2023-11-21T04:46:43;9.40;99.90
10788;DHT22;5446;50.826;4.380;2023-11-21T04:49:09;9.40;99.90
10788;DHT22;5446;50.826;4.380;2023-11-21T04:51:34;9.40;99.90
10788;DHT22;5446;50.826;4.380;2023-11-21T04:54:00;9.40;99.90
10788;DHT22;5446;50.826;4.380;2023-11-21T04:56:26;9.40;99.90
10788;DHT22;5446;50.826;4.380;2023-11-21T04:58:52;9.40;99.90
10788;DHT22;5446;50.826;4.380;2023-11-21T05:01:18;9.40;99.90
10788;DHT22;5446;50.826;4.380;2023-11-21T05:03:44;9.40;99.90
10788;DHT22;5446;50.826;4.380;2023-11-21T05:06:10;9.40;99.90
10788;DHT22;5446;50.826;4.380;2023-11-21T05:08:36;9.40;99.90
10788;DHT22;5446;50.826;4.380;2023-11-21T05:11:02;9.40;99.90
10788;DHT22;5446;50.826;4.380;2023-11-21T05:13:28;9.40;99.90
10788;DHT22;5446;50.826;4.380;2023-11-21T05:15:55;9.50;99.90
10788;DHT22;5446;50.826;4.380;2023-11-21T05:18:22;9.50;99.90
10788;DHT22;5446;50.826;4.380;2023-11-21T05:20:48;9.40;99.90
10788;DHT22;5446;50.826;4.380;2023-11-21T05:23:14;9.40;99.90
10788;DHT22;5446;50.826;4.380;2023-11-21T05:25:40;9.40;99.90
10788;DHT22;5446;50.826;4.380;2023-11-21T05:28:07;9.40;99.90
10788;DHT22;5446;50.826;4.380;2023-11-21T05:30:32;9.40;99.90
10788;DHT22;5446;50.826;4.380;2023-11-21T05:32:58;9.40;99.90
10788;DHT22;5446;50.826;4.380;2023-11-21T05:35:24;9.40;99.90
10788;DHT22;5446;50.826;4.380;2023-11-21T05:37:49;9.50;99.90
10788;DHT22;5446;50.826;4.380;2023-11-21T05:40:15;9.50;99.90
10788;DHT22;5446;50.826;4.380;2023-11-21T05:42:41;9.60;99.90
10788;DHT22;5446;50.826;4.380;2023-11-21T05:45:08;9.60;99.90
10788;DHT22;5446;50.826;4.380;2023-11-21T05:47:44;9.60;99.90
10788;DHT22;5446;50.826;4.380;2023-11-21T05:50:15;9.60;99.90
10788;DHT22;5446;50.826;4.380;2023-11-21T05:52:45;9.50;99.90
10788;DHT22;5446;50.826;4.380;2023-11-21T05:55:11;9.50;99.90
10788;DHT22;5446;50.826;4.380;2023-11-21T05:57:38;9.70;99.90
10788;DHT22;5446;50.826;4.380;2023-11-21T06:00:05;9.80;99.90
10788;DHT22;5446;50.826;4.380;2023-11-21T06:02:39;9.70;99.90
10788;DHT22;5446;50.826;4.380;2023-11-21T06:05:09;9.60;99.90
10788;DHT22;5446;50.826;4.380;2023-11-21T06:07:35;9.60;99.90
10788;DHT22;5446;50.826;4.380;2023-11-21T06:10:02;9.60;99.90
10788;DHT22;5446;50.826;4.380;2023-11-21T06:12:31;9.60;99.90
10788;DHT22;5446;50.826;4.380;2023-11-21T06:15:04;9.60;99.90
10788;DHT22;5446;50.826;4.380;2023-11-21T06:17:34;9.60;99.90
10788;DHT22;5446;50.826;4.380;2023-11-21T06:20:03;9.60;99.90
10788;DHT22;5446;50.826;4.380;2023-11-21T06:22:35;9.60;99.90
10788;DHT22;5446;50.826;4.380;2023-11-21T06:25:01;9.60;99.90
10788;DHT22;5446;50.826;4.380;2023-11-21T06:27:28;9.60;99.90
10788;DHT22;5446;50.826;4.380;2023-11-21T06:29:55;9.70;99.90
10788;DHT22;5446;50.826;4.380;2023-11-21T06:32:20;9.60;99.90
10788;DHT22;5446;50.826;4.380;2023-11-21T06:34:48;9.60;99.90
10788;DHT22;5446;50.826;4.380;2023-11-21T06:37:15;9.60;99.90
10788;DHT22;5446;50.826;4.380;2023-11-21T06:39:42;9.70;99.90
10788;DHT22;5446;50.826;4.380;2023-11-21T06:42:08;9.70;99.90
10788;DHT22;5446;50.826;4.380;2023-11-21T06:44:33;9.70;99.90
10788;DHT22;5446;50.826;4.380;2023-11-21T06:47:00;9.70;99.90
10788;DHT22;5446;50.826;4.380;2023-11-21T06:49:26;9.80;99.90
10788;DHT22;5446;50.826;4.380;2023-11-21T06:51:52;9.80;99.90
10788;DHT22;5446;50.826;4.380;2023-11-21T06:54:19;9.70;99.90
10788;DHT22;5446;50.826;4.380;2023-11-21T06:59:11;9.80;99.90
10788;DHT22;5446;50.826;4.380;2023-11-21T07:01:38;9.80;99.90
10788;DHT22;5446;50.826;4.380;2023-11-21T07:04:06;9.80;99.90
10788;DHT22;5446;50.826;4.380;2023-11-21T07:06:32;9.80;99.90
10788;DHT22;5446;50.826;4.380;2023-11-21T07:08:58;9.80;99.90
10788;DHT22;5446;50.826;4.380;2023-11-21T07:11:24;9.70;99.90
10788;DHT22;5446;50.826;4.380;2023-11-21T07:13:50;9.80;99.90
10788;DHT22;5446;50.826;4.380;2023-11-21T07:16:18;9.80;99.90
10788;DHT22;5446;50.826;4.380;2023-11-21T07:18:44;9.80;99.90
10788;DHT22;5446;50.826;4.380;2023-11-21T07:21:10;9.80;99.90
10788;DHT22;5446;50.826;4.380;2023-11-21T07:23:38;9.80;99.90
10788;DHT22;5446;50.826;4.380;2023-11-21T07:26:04;9.80;99.90
10788;DHT22;5446;50.826;4.380;2023-11-21T07:28:34;9.80;99.90
10788;DHT22;5446;50.826;4.380;2023-11-21T07:31:01;9.80;99.90
10788;DHT22;5446;50.826;4.380;2023-11-21T07:33:27;9.80;99.90
10788;DHT22;5446;50.826;4.380;2023-11-21T07:35:52;9.80;99.90
10788;DHT22;5446;50.826;4.380;2023-11-21T07:38:18;9.70;99.90
10788;DHT22;5446;50.826;4.380;2023-11-21T07:40:44;9.80;99.90
10788;DHT22;5446;50.826;4.380;2023-11-21T07:43:09;9.90;99.90
10788;DHT22;5446;50.826;4.380;2023-11-21T07:45:36;9.90;99.90
10788;DHT22;5446;50.826;4.380;2023-11-21T07:48:02;9.70;99.90
10788;DHT22;5446;50.826;4.380;2023-11-21T07:50:29;9.80;99.90
10788;DHT22;5446;50.826;4.380;2023-11-21T07:52:55;9.80;99.90
10788;DHT22;5446;50.826;4.380;2023-11-21T07:55:20;9.90;99.90
10788;DHT22;5446;50.826;4.380;2023-11-21T07:57:46;9.80;99.90
10788;DHT22;5446;50.826;4.380;2023-11-21T08:00:12;9.90;99.90
10788;DHT22;5446;50.826;4.380;2023-11-21T08:02:40;10.00;99.90
10788;DHT22;5446;50.826;4.380;2023-11-21T08:05:11;9.90;99.90
10788;DHT22;5446;50.826;4.380;2023-11-21T08:07:38;9.90;99.90
10788;DHT22;5446;50.826;4.380;2023-11-21T08:10:04;9.90;99.90
10788;DHT22;5446;50.826;4.380;2023-11-21T08:12:32;10.00;99.90
10788;DHT22;5446;50.826;4.380;2023-11-21T08:14:59;10.00;99.90
10788;DHT22;5446;50.826;4.380;2023-11-21T08:17:24;10.00;99.90
10788;DHT22;5446;50.826;4.380;2023-11-21T08:19:50;10.00;99.90
10788;DHT22;5446;50.826;4.380;2023-11-21T08:22:16;10.00;99.90
10788;DHT22;5446;50.826;4.380;2023-11-21T08:24:43;10.00;99.90
10788;DHT22;5446;50.826;4.380;2023-11-21T08:27:09;10.00;99.90
10788;DHT22;5446;50.826;4.380;2023-11-21T08:29:35;10.10;99.90
10788;DHT22;5446;50.826;4.380;2023-11-21T08:32:02;10.00;99.90
10788;DHT22;5446;50.826;4.380;2023-11-21T08:34:28;10.10;99.90
10788;DHT22;5446;50.826;4.380;2023-11-21T08:36:54;10.10;99.90
10788;DHT22;5446;50.826;4.380;2023-11-21T08:39:21;10.10;99.90
10788;DHT22;5446;50.826;4.380;2023-11-21T08:41:50;10.10;99.90
10788;DHT22;5446;50.826;4.380;2023-11-21T08:44:16;10.10;99.90
10788;DHT22;5446;50.826;4.380;2023-11-21T08:46:44;10.10;99.90
10788;DHT22;5446;50.826;4.380;2023-11-21T08:49:11;10.10;99.90
10788;DHT22;5446;50.826;4.380;2023-11-21T08:51:37;10.10;99.90
10788;DHT22;5446;50.826;4.380;2023-11-21T08:54:04;10.10;99.90
10788;DHT22;5446;50.826;4.380;2023-11-21T08:56:36;10.10;99.90
10788;DHT22;5446;50.826;4.380;2023-11-21T08:59:02;10.10;99.90
10788;DHT22;5446;50.826;4.380;2023-11-21T09:01:29;10.10;99.90
10788;DHT22;5446;50.826;4.380;2023-11-21T09:03:59;10.10;99.90
10788;DHT22;5446;50.826;4.380;2023-11-21T09:06:25;10.20;99.90
10788;DHT22;5446;50.826;4.380;2023-11-21T09:08:51;10.20;99.90
10788;DHT22;5446;50.826;4.380;2023-11-21T09:11:17;10.20;99.90
10788;DHT22;5446;50.826;4.380;2023-11-21T09:13:43;10.20;99.90
10788;DHT22;5446;50.826;4.380;2023-11-21T09:16:09;10.20;99.90
10788;DHT22;5446;50.826;4.380;2023-11-21T09:18:34;10.20;99.90
10788;DHT22;5446;50.826;4.380;2023-11-21T09:21:00;10.20;99.90
10788;DHT22;5446;50.826;4.380;2023-11-21T09:23:26;10.30;99.90
10788;DHT22;5446;50.826;4.380;2023-11-21T09:25:52;10.30;99.90
10788;DHT22;5446;50.826;4.380;2023-11-21T09:28:19;10.30;99.90
10788;DHT22;5446;50.826;4.380;2023-11-21T09:30:45;10.30;99.90
10788;DHT22;5446;50.826;4.380;2023-11-21T09:33:11;10.40;99.90
10788;DHT22;5446;50.826;4.380;2023-11-21T09:35:40;10.30;99.90
10788;DHT22;5446;50.826;4.380;2023-11-21T09:38:05;10.30;99.90
10788;DHT22;5446;50.826;4.380;2023-11-21T09:40:35;10.30;99.90
10788;DHT22;5446;50.826;4.380;2023-11-21T09:43:09;10.30;99.90
10788;DHT22;5446;50.826;4.380;2023-11-21T09:45:47;10.30;99.90
10788;DHT22;5446;50.826;4.380;2023-11-21T09:48:17;10.30;99.90
10788;DHT22;5446;50.826;4.380;2023-11-21T09:50:43;10.40;99.90
10788;DHT22;5446;50.826;4.380;2023-11-21T09:53:19;10.30;99.90
10788;DHT22;5446;50.826;4.380;2023-11-21T09:55:53;10.40;99.90
10788;DHT22;5446;50.826;4.380;2023-11-21T09:58:20;10.40;99.90
10788;DHT22;5446;50.826;4.380;2023-11-21T10:00:51;10.50;99.90
10788;DHT22;5446;50.826;4.380;2023-11-21T10:03:18;10.60;99.90
10788;DHT22;5446;50.826;4.380;2023-11-21T10:05:44;10.70;99.90
10788;DHT22;5446;50.826;4.380;2023-11-21T10:08:12;10.60;99.90
10788;DHT22;5446;50.826;4.380;2023-11-21T10:10:45;10.70;99.90
10788;DHT22;5446;50.826;4.380;2023-11-21T10:13:13;10.70;99.90
10788;DHT22;5446;50.826;4.380;2023-11-21T10:15:42;10.70;99.90
10788;DHT22;5446;50.826;4.380;2023-11-21T10:18:14;10.70;99.90
10788;DHT22;5446;50.826;4.380;2023-11-21T10:20:41;10.70;99.90
10788;DHT22;5446;50.826;4.380;2023-11-21T10:23:07;10.70;99.90
10788;DHT22;5446;50.826;4.380;2023-11-21T10:25:36;10.60;99.90
10788;DHT22;5446;50.826;4.380;2023-11-21T10:28:04;10.70;99.90
10788;DHT22;5446;50.826;4.380;2023-11-21T10:30:35;10.70;99.90
10788;DHT22;5446;50.826;4.380;2023-11-21T10:33:06;10.70;99.90
10788;DHT22;5446;50.826;4.380;2023-11-21T10:35:49;10.60;99.90
10788;DHT22;5446;50.826;4.380;2023-11-21T10:38:20;10.60;99.90
10788;DHT22;5446;50.826;4.380;2023-11-21T10:40:50;10.70;99.90
10788;DHT22;5446;50.826;4.380;2023-11-21T10:43:17;10.90;99.90
10788;DHT22;5446;50.826;4.380;2023-11-21T10:45:43;10.90;99.90
10788;DHT22;5446;50.826;4.380;2023-11-21T10:48:13;11.00;99.90
10788;DHT22;5446;50.826;4.380;2023-11-21T10:50:43;11.00;99.90
10788;DHT22;5446;50.826;4.380;2023-11-21T10:53:09;11.00;99.90
10788;DHT22;5446;50.826;4.380;2023-11-21T10:55:37;11.10;99.90
10788;DHT22;5446;50.826;4.380;2023-11-21T10:58:03;11.10;99.90
10788;DHT22;5446;50.826;4.380;2023-11-21T11:00:32;11.20;99.90
10788;DHT22;5446;50.826;4.380;2023-11-21T11:02:58;11.20;99.90
10788;DHT22;5446;50.826;4.380;2023-11-21T11:05:26;11.20;99.90
10788;DHT22;5446;50.826;4.380;2023-11-21T11:08:02;11.30;99.90
10788;DHT22;5446;50.826;4.380;2023-11-21T11:10:29;11.40;99.90
10788;DHT22;5446;50.826;4.380;2023-11-21T11:12:56;11.40;99.90
10788;DHT22;5446;50.826;4.380;2023-11-21T11:15:27;11.40;99.90
10788;DHT22;5446;50.826;4.380;2023-11-21T11:17:53;11.30;99.90
10788;DHT22;5446;50.826;4.380;2023-11-21T11:20:24;11.30;99.90
10788;DHT22;5446;50.826;4.380;2023-11-21T11:28:07;11.30;99.90
10788;DHT22;5446;50.826;4.380;2023-11-21T11:36:01;11.40;99.90
10788;DHT22;5446;50.826;4.380;2023-11-21T11:38:31;11.50;99.90
10788;DHT22;5446;50.826;4.380;2023-11-21T11:41:02;11.50;99.90
10788;DHT22;5446;50.826;4.380;2023-11-21T11:43:29;11.50;99.90
10788;DHT22;5446;50.826;4.380;2023-11-21T11:45:59;11.50;99.90
10788;DHT22;5446;50.826;4.380;2023-11-21T11:48:29;11.50;99.90
10788;DHT22;5446;50.826;4.380;2023-11-21T11:51:05;11.50;99.90
10788;DHT22;5446;50.826;4.380;2023-11-21T11:53:41;11.50;99.90
10788;DHT22;5446;50.826;4.380;2023-11-21T11:56:28;11.50;99.90
10788;DHT22;5446;50.826;4.380;2023-11-21T11:58:57;11.50;99.90
10788;DHT22;5446;50.826;4.380;2023-11-21T12:01:25;11.50;99.90
10788;DHT22;5446;50.826;4.380;2023-11-21T12:07:00;11.40;99.90
10788;DHT22;5446;50.826;4.380;2023-11-21T12:09:28;11.40;99.90
10788;DHT22;5446;50.826;4.380;2023-11-21T12:11:55;11.40;99.90
10788;DHT22;5446;50.826;4.380;2023-11-21T12:14:24;11.30;99.90
10788;DHT22;5446;50.826;4.380;2023-11-21T12:16:51;11.20;99.90
10788;DHT22;5446;50.826;4.380;2023-11-21T12:19:17;11.20;99.90
10788;DHT22;5446;50.826;4.380;2023-11-21T12:21:44;11.30;99.90
10788;DHT22;5446;50.826;4.380;2023-11-21T12:24:10;11.20;99.90
10788;DHT22;5446;50.826;4.380;2023-11-21T12:26:42;11.30;99.90
10788;DHT22;5446;50.826;4.380;2023-11-21T12:29:08;11.20;99.90
10788;DHT22;5446;50.826;4.380;2023-11-21T12:31:34;11.30;99.90
10788;DHT22;5446;50.826;4.380;2023-11-21T12:34:00;11.40;99.90
10788;DHT22;5446;50.826;4.380;2023-11-21T12:36:26;11.40;99.90
10788;DHT22;5446;50.826;4.380;2023-11-21T12:38:54;11.40;99.90
10788;DHT22;5446;50.826;4.380;2023-11-21T12:41:20;11.40;99.90
10788;DHT22;5446;50.826;4.380;2023-11-21T12:43:47;11.50;99.90
10788;DHT22;5446;50.826;4.380;2023-11-21T12:46:13;11.50;99.90
10788;DHT22;5446;50.826;4.380;2023-11-21T12:48:44;11.50;99.90
10788;DHT22;5446;50.826;4.380;2023-11-21T12:51:13;11.50;99.90
10788;DHT22;5446;50.826;4.380;2023-11-21T12:53:44;11.40;99.90
10788;DHT22;5446;50.826;4.380;2023-11-21T12:56:11;11.50;99.90
10788;DHT22;5446;50.826;4.380;2023-11-21T12:58:38;11.50;99.90
10788;DHT22;5446;50.826;4.380;2023-11-21T13:01:05;11.50;99.90
10788;DHT22;5446;50.826;4.380;2023-11-21T13:03:37;11.50;99.90
10788;DHT22;5446;50.826;4.380;2023-11-21T13:06:04;11.40;99.90
10788;DHT22;5446;50.826;4.380;2023-11-21T13:08:30;11.30;99.90
10788;DHT22;5446;50.826;4.380;2023-11-21T13:10:58;11.30;99.90
10788;DHT22;5446;50.826;4.380;2023-11-21T13:13:25;11.30;99.90
10788;DHT22;5446;50.826;4.380;2023-11-21T13:15:59;11.30;99.90
10788;DHT22;5446;50.826;4.380;2023-11-21T13:18:31;11.30;99.90
10788;DHT22;5446;50.826;4.380;2023-11-21T13:20:59;11.30;99.90
10788;DHT22;5446;50.826;4.380;2023-11-21T13:23:26;11.20;99.90
10788;DHT22;5446;50.826;4.380;2023-11-21T13:25:54;11.10;99.90
10788;DHT22;5446;50.826;4.380;2023-11-21T13:28:20;11.10;99.90
10788;DHT22;5446;50.826;4.380;2023-11-21T13:30:48;11.10;99.90
10788;DHT22;5446;50.826;4.380;2023-11-21T13:33:14;11.10;99.90
10788;DHT22;5446;50.826;4.380;2023-11-21T13:35:44;11.10;99.90
10788;DHT22;5446;50.826;4.380;2023-11-21T13:38:17;11.10;99.90
10788;DHT22;5446;50.826;4.380;2023-11-21T13:40:47;11.00;99.90
10788;DHT22;5446;50.826;4.380;2023-11-21T13:43:16;11.10;99.90
10788;DHT22;5446;50.826;4.380;2023-11-21T13:45:43;11.10;99.90
10788;DHT22;5446;50.826;4.380;2023-11-21T13:48:10;11.10;99.90
10788;DHT22;5446;50.826;4.380;2023-11-21T13:50:42;11.20;99.90
10788;DHT22;5446;50.826;4.380;2023-11-21T13:53:23;11.20;99.90
10788;DHT22;5446;50.826;4.380;2023-11-21T13:55:50;11.20;99.90
10788;DHT22;5446;50.826;4.380;2023-11-21T13:58:17;11.20;99.90
10788;DHT22;5446;50.826;4.380;2023-11-21T14:00:49;11.10;99.90
10788;DHT22;5446;50.826;4.380;2023-11-21T14:03:24;11.10;99.90
10788;DHT22;5446;50.826;4.380;2023-11-21T14:05:58;11.00;99.90
10788;DHT22;5446;50.826;4.380;2023-11-21T14:08:26;11.00;99.90
10788;DHT22;5446;50.826;4.380;2023-11-21T14:10:57;11.00;99.90
10788;DHT22;5446;50.826;4.380;2023-11-21T14:13:26;11.00;99.90
10788;DHT22;5446;50.826;4.380;2023-11-21T14:15:52;10.90;99.90
10788;DHT22;5446;50.826;4.380;2023-11-21T14:18:26;10.90;99.90
10788;DHT22;5446;50.826;4.380;2023-11-21T14:21:16;10.80;99.90
10788;DHT22;5446;50.826;4.380;2023-11-21T14:23:42;10.80;99.90
10788;DHT22;5446;50.826;4.380;2023-11-21T14:26:08;10.80;99.90
10788;DHT22;5446;50.826;4.380;2023-11-21T14:28:34;10.80;99.90
10788;DHT22;5446;50.826;4.380;2023-11-21T14:31:01;10.80;99.90
10788;DHT22;5446;50.826;4.380;2023-11-21T14:33:28;10.80;99.90
10788;DHT22;5446;50.826;4.380;2023-11-21T14:35:54;10.80;99.90
10788;DHT22;5446;50.826;4.380;2023-11-21T14:38:20;10.80;99.90
10788;DHT22;5446;50.826;4.380;2023-11-21T14:40:46;10.80;99.90
10788;DHT22;5446;50.826;4.380;2023-11-21T14:43:13;10.70;99.90
10788;DHT22;5446;50.826;4.380;2023-11-21T14:45:39;10.70;99.90
10788;DHT22;5446;50.826;4.380;2023-11-21T14:48:04;10.70;99.90
10788;DHT22;5446;50.826;4.380;2023-11-21T14:50:30;10.70;99.90
10788;DHT22;5446;50.826;4.380;2023-11-21T14:53:29;10.70;99.90
10788;DHT22;5446;50.826;4.380;2023-11-21T14:56:24;10.70;99.90
10788;DHT22;5446;50.826;4.380;2023-11-21T14:58:56;10.70;99.90
10788;DHT22;5446;50.826;4.380;2023-11-21T15:01:23;10.70;99.90
10788;DHT22;5446;50.826;4.380;2023-11-21T15:04:08;10.70;99.90
10788;DHT22;5446;50.826;4.380;2023-11-21T15:06:40;10.60;99.90
10788;DHT22;5446;50.826;4.380;2023-11-21T15:09:08;10.70;99.90
10788;DHT22;5446;50.826;4.380;2023-11-21T15:11:35;10.70;99.90
10788;DHT22;5446;50.826;4.380;2023-11-21T15:14:03;10.70;99.90
10788;DHT22;5446;50.826;4.380;2023-11-21T15:16:35;10.70;99.90
10788;DHT22;5446;50.826;4.380;2023-11-21T15:19:07;10.70;99.90
10788;DHT22;5446;50.826;4.380;2023-11-21T15:21:35;10.60;99.90
10788;DHT22;5446;50.826;4.380;2023-11-21T15:24:01;10.70;99.90
10788;DHT22;5446;50.826;4.380;2023-11-21T15:26:28;10.60;99.90
10788;DHT22;5446;50.826;4.380;2023-11-21T15:28:54;10.60;99.90
10788;DHT22;5446;50.826;4.380;2023-11-21T15:31:19;10.60;99.90
10788;DHT22;5446;50.826;4.380;2023-11-21T15:33:51;10.70;99.90
10788;DHT22;5446;50.826;4.380;2023-11-21T15:36:18;10.70;99.90
10788;DHT22;5446;50.826;4.380;2023-11-21T15:38:44;10.80;99.90
10788;DHT22;5446;50.826;4.380;2023-11-21T15:41:10;10.70;99.90
10788;DHT22;5446;50.826;4.380;2023-11-21T15:43:37;10.70;99.90
10788;DHT22;5446;50.826;4.380;2023-11-21T15:46:03;10.60;99.90
10788;DHT22;5446;50.826;4.380;2023-11-21T15:48:36;10.60;99.90
10788;DHT22;5446;50.826;4.380;2023-11-21T15:51:04;10.60;99.90
10788;DHT22;5446;50.826;4.380;2023-11-21T15:53:31;10.50;99.90
10788;DHT22;5446;50.826;4.380;2023-11-21T15:55:58;10.50;99.90
10788;DHT22;5446;50.826;4.380;2023-11-21T15:58:23;10.50;99.90
10788;DHT22;5446;50.826;4.380;2023-11-21T16:00:51;10.50;99.90
10788;DHT22;5446;50.826;4.380;2023-11-21T16:03:17;10.50;99.90
10788;DHT22;5446;50.826;4.380;2023-11-21T16:05:43;10.40;99.90
10788;DHT22;5446;50.826;4.380;2023-11-21T16:08:08;10.50;99.90
10788;DHT22;5446;50.826;4.380;2023-11-21T16:10:34;10.40;99.90
10788;DHT22;5446;50.826;4.380;2023-11-21T16:13:01;10.40;99.90
10788;DHT22;5446;50.826;4.380;2023-11-21T16:15:28;10.40;99.90